Time;durP1;ratioP1;P1;durP2;ratioP2;P2;SDS_P1;SDS_P2;PMS_P1;PMS_P2;Temp;Humidity;BMP_temperature;BMP_pressure;BME280_temperature;BME280_humidity;BME280_pressure;Samples;Min_cycle;Max_cycle;Signal;HPM_P1;HPM_P2
2024/04/19 01:16:28;;;;;;;;;;;;;;;23.13;24.52;97744.47;5501858;26;19937;-78
2024/04/19 01:18:54;;;;;;;;;;;;;;;23.19;24.06;97740.72;5509500;26;19928;-78
2024/04/19 01:21:21;;;;;;;;;;;;;;;23.29;23.89;97747.31;5512039;26;19927;-78
2024/04/19 01:23:49;;;;;;;;;;;;;;;22.96;24.04;97746.47;5509485;25;19976;-78
2024/04/19 01:26:15;;;;;;;;;;;;;;;22.89;24.46;97741.03;5508947;26;19928;-78
2024/04/19 01:28:41;;;;;;;;;;;;;;;22.54;24.81;97750.94;5513576;26;20006;-79
2024/04/19 01:31:07;;;;;;;;;;;;;;;21.89;25.14;97747.03;5507899;26;19927;-78
2024/04/19 01:33:33;;;;;;;;;;;;;;;22.39;24.90;97748.88;5518592;26;20259;-78
2024/04/19 01:35:59;;;;;;;;;;;;;;;22.28;24.90;97740.72;5512188;26;19955;-78
2024/04/19 01:38:25;;;;;;;;;;;;;;;22.69;24.64;97746.66;5507454;26;20260;-78
2024/04/19 01:40:51;;;;;;;;;;;;;;;21.61;25.54;97746.75;5513883;26;19979;-78
2024/04/19 01:43:17;;;;;;;;;;;;;;;22.02;25.06;97742.41;5510772;26;19955;-80
2024/04/19 01:45:43;;;;;;;;;;;;;;;22.54;24.79;97750.16;5506765;26;19943;-79
2024/04/19 01:48:09;;;;;;;;;;;;;;;22.48;24.68;97743.47;5517999;26;19935;-79
2024/04/19 01:50:35;;;;;;;;;;;;;;;23.09;23.80;97747.38;5507807;26;19938;-80
2024/04/19 01:53:01;;;;;;;;;;;;;;;22.64;24.31;97737.97;5512690;26;19935;-79
2024/04/19 01:55:29;;;;;;;;;;;;;;;22.60;24.26;97740.88;5507418;26;20339;-79
2024/04/19 01:57:55;;;;;;;;;;;;;;;23.01;23.74;97742.38;5511858;26;20355;-79
2024/04/19 02:00:21;;;;;;;;;;;;;;;22.65;24.05;97737.56;5509052;26;19935;-79
2024/04/19 02:02:47;;;;;;;;;;;;;;;22.98;23.46;97732.81;5508895;26;19935;-79
2024/04/19 02:05:13;;;;;;;;;;;;;;;23.33;22.92;97736.78;5516124;26;19939;-79
2024/04/19 02:07:39;;;;;;;;;;;;;;;23.19;23.33;97743.53;5508136;26;19939;-79
2024/04/19 02:10:06;;;;;;;;;;;;;;;23.78;22.65;97729.25;5516821;26;19928;-79
2024/04/19 02:12:32;;;;;;;;;;;;;;;23.92;22.83;97730.91;5505034;26;19955;-79
2024/04/19 02:14:59;;;;;;;;;;;;;;;23.69;22.93;97739.50;5513008;26;19943;-79
2024/04/19 02:17:25;;;;;;;;;;;;;;;23.16;23.67;97732.41;5511515;26;19928;-79
2024/04/19 02:19:51;;;;;;;;;;;;;;;23.03;23.95;97737.13;5506197;26;20246;-79
2024/04/19 02:22:17;;;;;;;;;;;;;;;22.63;23.93;97737.22;5513956;26;20251;-79
2024/04/19 02:24:43;;;;;;;;;;;;;;;22.81;23.99;97736.81;5514365;26;19963;-79
2024/04/19 02:30:51;;;;;;;;;;;;;;;23.25;23.60;97732.56;5509744;26;20247;-79
2024/04/19 02:32:40;;;;;;;;;;;;;;;23.76;22.87;97734.50;5508293;26;19943;-79
2024/04/19 02:35:06;;;;;;;;;;;;;;;23.87;22.90;97726.63;5508495;26;19995;-79
2024/04/19 02:37:32;;;;;;;;;;;;;;;24.15;22.63;97733.50;5507225;26;19934;-79
2024/04/19 02:40:07;;;;;;;;;;;;;;;24.11;22.58;97723.63;5513014;26;20258;-80
2024/04/19 02:42:33;;;;;;;;;;;;;;;24.38;22.17;97730.44;5509879;26;20296;-79
2024/04/19 02:44:59;;;;;;;;;;;;;;;24.29;22.44;97726.72;5514069;26;19928;-79
2024/04/19 02:47:25;;;;;;;;;;;;;;;24.16;22.80;97721.03;5513148;26;19927;-79
2024/04/19 02:49:51;;;;;;;;;;;;;;;23.63;22.85;97728.06;5516965;26;19934;-79
2024/04/19 02:52:17;;;;;;;;;;;;;;;23.64;22.98;97720.44;5515241;26;20007;-79
2024/04/19 02:54:43;;;;;;;;;;;;;;;23.60;22.95;97717.72;5513916;26;19939;-79
2024/04/19 02:57:09;;;;;;;;;;;;;;;24.04;22.46;97716.94;5517222;26;19935;-79
2024/04/19 02:59:35;;;;;;;;;;;;;;;23.63;22.91;97719.66;5508670;26;19928;-78
2024/04/19 03:02:01;;;;;;;;;;;;;;;23.66;23.07;97724.38;5507851;26;19928;-78
2024/04/19 03:04:27;;;;;;;;;;;;;;;23.61;23.02;97726.91;5513541;26;20375;-79
2024/04/19 03:06:53;;;;;;;;;;;;;;;23.42;23.00;97725.78;5520091;26;19941;-79
2024/04/19 03:09:19;;;;;;;;;;;;;;;22.94;23.77;97731.34;5515137;26;19928;-79
2024/04/19 03:11:45;;;;;;;;;;;;;;;22.93;24.23;97729.75;5482687;26;20016;-78
2024/04/19 03:14:11;;;;;;;;;;;;;;;22.15;24.74;97728.56;5502984;26;20379;-79
2024/04/19 03:16:37;;;;;;;;;;;;;;;22.33;24.42;97729.03;5504736;26;19939;-78
2024/04/19 03:19:03;;;;;;;;;;;;;;;22.71;23.98;97739.84;5512975;26;19927;-78
2024/04/19 03:21:30;;;;;;;;;;;;;;;23.43;23.42;97735.78;5500386;26;19959;-78
2024/04/19 03:23:56;;;;;;;;;;;;;;;23.43;23.45;97732.19;5504125;26;19965;-78
2024/04/19 03:26:23;;;;;;;;;;;;;;;23.13;23.42;97727.66;5511134;26;19928;-79
2024/04/19 03:28:50;;;;;;;;;;;;;;;23.53;23.10;97725.50;5519037;26;19933;-79
2024/04/19 03:31:16;;;;;;;;;;;;;;;23.64;22.95;97724.00;5510889;26;20285;-79
2024/04/19 03:33:42;;;;;;;;;;;;;;;22.79;24.07;97719.66;5512848;26;19932;-79
2024/04/19 03:36:08;;;;;;;;;;;;;;;22.84;23.79;97721.94;5507138;26;19931;-79
2024/04/19 03:38:34;;;;;;;;;;;;;;;22.47;23.56;97723.13;5510557;26;20388;-79
2024/04/19 03:41:00;;;;;;;;;;;;;;;22.50;23.87;97719.44;5508719;26;19932;-79
2024/04/19 03:43:32;;;;;;;;;;;;;;;22.72;23.70;97721.81;5505137;26;19955;-79
2024/04/19 03:45:59;;;;;;;;;;;;;;;23.01;23.20;97728.38;5498243;26;19932;-79
2024/04/19 03:48:25;;;;;;;;;;;;;;;23.43;22.53;97724.59;5512385;26;19992;-79
2024/04/19 03:50:51;;;;;;;;;;;;;;;23.39;22.62;97732.25;5513056;26;20375;-79
2024/04/19 03:53:17;;;;;;;;;;;;;;;23.73;22.55;97720.59;5512798;26;19964;-79
2024/04/19 03:55:43;;;;;;;;;;;;;;;23.40;22.67;97725.44;5514376;25;19927;-79
2024/04/19 03:58:09;;;;;;;;;;;;;;;23.55;22.30;97717.47;5503836;26;19927;-79
2024/04/19 04:00:41;;;;;;;;;;;;;;;23.56;22.60;97721.84;5508886;26;19934;-78
2024/04/19 04:03:07;;;;;;;;;;;;;;;23.44;22.86;97716.94;5518827;26;19959;-78
2024/04/19 04:05:34;;;;;;;;;;;;;;;23.69;22.71;97723.47;5511800;26;19935;-78
2024/04/19 04:08:00;;;;;;;;;;;;;;;23.90;22.28;97710.91;5514119;26;19935;-79
2024/04/19 04:10:25;;;;;;;;;;;;;;;24.26;22.15;97717.16;5511090;26;19940;-78
2024/04/19 04:12:51;;;;;;;;;;;;;;;24.23;22.18;97717.25;5518356;26;19931;-78
2024/04/19 04:15:17;;;;;;;;;;;;;;;24.67;21.75;97705.91;5511326;26;20596;-78
2024/04/19 04:17:43;;;;;;;;;;;;;;;24.89;21.70;97714.50;5512170;26;19939;-78
2024/04/19 04:20:09;;;;;;;;;;;;;;;25.10;21.48;97713.84;5513188;26;19935;-79
2024/04/19 04:22:36;;;;;;;;;;;;;;;25.78;21.13;97707.59;5505153;26;20316;-79
2024/04/19 04:25:02;;;;;;;;;;;;;;;26.32;20.33;97714.94;5505770;26;19939;-79
2024/04/19 04:27:28;;;;;;;;;;;;;;;26.24;20.51;97720.03;5508527;26;19935;-79
2024/04/19 04:29:54;;;;;;;;;;;;;;;26.21;20.52;97718.13;5510968;26;19995;-79
2024/04/19 04:32:21;;;;;;;;;;;;;;;26.24;20.20;97714.41;5480091;26;19934;-79
2024/04/19 04:34:47;;;;;;;;;;;;;;;26.35;20.31;97714.03;5505401;26;19935;-78
2024/04/19 04:37:13;;;;;;;;;;;;;;;26.75;20.35;97723.38;5512707;26;20003;-80
2024/04/19 04:39:39;;;;;;;;;;;;;;;26.93;20.50;97714.25;5510136;26;20377;-80
2024/04/19 04:42:05;;;;;;;;;;;;;;;26.88;20.34;97712.03;5516553;26;19958;-79
2024/04/19 04:44:32;;;;;;;;;;;;;;;27.23;20.70;97707.78;5510965;26;20364;-78
2024/04/19 04:46:59;;;;;;;;;;;;;;;27.47;19.95;97699.59;5503562;26;19928;-78
2024/04/19 04:49:25;;;;;;;;;;;;;;;27.76;19.85;97702.78;5502143;25;19947;-78
2024/04/19 04:51:51;;;;;;;;;;;;;;;27.77;19.77;97695.91;5508583;26;19932;-78
2024/04/19 04:54:17;;;;;;;;;;;;;;;27.68;19.68;97696.66;5512867;26;19951;-78
2024/04/19 04:56:43;;;;;;;;;;;;;;;27.93;19.56;97696.38;5505713;26;20450;-78
2024/04/19 04:59:09;;;;;;;;;;;;;;;28.14;19.28;97694.69;5512956;26;19932;-78
2024/04/19 05:01:35;;;;;;;;;;;;;;;28.18;20.01;97686.84;5513817;26;19959;-78
2024/04/19 05:04:01;;;;;;;;;;;;;;;27.95;19.55;97691.03;5517301;26;19994;-78
2024/04/19 05:06:27;;;;;;;;;;;;;;;28.17;19.47;97679.59;5509901;26;19928;-78
2024/04/19 05:08:53;;;;;;;;;;;;;;;28.06;19.48;97688.56;5516823;26;20278;-78
2024/04/19 05:11:19;;;;;;;;;;;;;;;27.83;20.13;97697.63;5510485;26;20266;-78
2024/04/19 05:13:45;;;;;;;;;;;;;;;27.69;20.23;97684.13;5509280;26;19951;-78
2024/04/19 05:16:11;;;;;;;;;;;;;;;27.22;20.02;97683.66;5522822;26;19935;-78
2024/04/19 05:18:37;;;;;;;;;;;;;;;27.57;20.26;97681.44;5520616;26;20366;-78
2024/04/19 05:21:03;;;;;;;;;;;;;;;27.77;20.29;97682.53;5520377;26;19939;-78
2024/04/19 05:23:29;;;;;;;;;;;;;;;27.17;20.15;97678.63;5491518;26;19927;-78
2024/04/19 05:25:55;;;;;;;;;;;;;;;26.72;20.88;97684.84;5518196;26;19935;-79
2024/04/19 05:28:22;;;;;;;;;;;;;;;26.97;20.78;97679.03;5523134;26;19931;-79
2024/04/19 05:30:47;;;;;;;;;;;;;;;27.25;20.13;97680.72;5502113;26;20263;-79
2024/04/19 05:33:13;;;;;;;;;;;;;;;27.37;20.19;97677.03;5517414;26;19934;-79
2024/04/19 05:35:41;;;;;;;;;;;;;;;26.97;20.87;97683.88;5520602;26;19939;-79
2024/04/19 05:38:07;;;;;;;;;;;;;;;26.33;21.21;97677.88;5513136;26;20287;-78
2024/04/19 05:40:33;;;;;;;;;;;;;;;26.81;20.70;97684.13;5512764;26;19943;-78
2024/04/19 05:42:59;;;;;;;;;;;;;;;26.67;21.71;97683.41;5510281;26;19934;-80
2024/04/19 05:45:28;;;;;;;;;;;;;;;26.59;21.10;97675.69;5515159;26;19960;-80
2024/04/19 05:47:54;;;;;;;;;;;;;;;26.81;20.77;97675.69;5520192;26;19927;-79
2024/04/19 05:50:20;;;;;;;;;;;;;;;27.12;21.09;97668.00;5525138;26;19943;-80
2024/04/19 05:52:46;;;;;;;;;;;;;;;26.13;21.72;97669.00;5520077;26;19994;-80
2024/04/19 05:55:14;;;;;;;;;;;;;;;26.19;22.06;97672.78;5507787;25;20352;-79
2024/04/19 05:57:40;;;;;;;;;;;;;;;25.94;21.70;97675.69;5507170;26;20511;-79
2024/04/19 06:00:06;;;;;;;;;;;;;;;26.53;21.33;97678.34;5523696;25;19927;-79
2024/04/19 06:02:32;;;;;;;;;;;;;;;26.10;21.83;97675.53;5525664;26;19927;-79
2024/04/19 06:04:58;;;;;;;;;;;;;;;26.32;21.68;97667.09;5525840;25;20014;-79
2024/04/19 06:07:24;;;;;;;;;;;;;;;25.58;21.70;97659.25;5528413;26;19934;-79
2024/04/19 06:09:50;;;;;;;;;;;;;;;24.77;22.92;97658.31;5500045;26;19964;-79
2024/04/19 06:12:16;;;;;;;;;;;;;;;24.32;23.12;97653.66;5496037;26;19928;-79
2024/04/19 06:14:42;;;;;;;;;;;;;;;24.80;22.77;97655.44;5491831;26;19932;-79
2024/04/19 06:17:09;;;;;;;;;;;;;;;24.56;22.70;97659.75;5491784;26;20000;-79
2024/04/19 06:19:35;;;;;;;;;;;;;;;25.79;22.57;97657.75;5492328;26;19932;-79
2024/04/19 06:22:01;;;;;;;;;;;;;;;26.43;21.65;97665.44;5505519;26;19939;-79
2024/04/19 06:24:27;;;;;;;;;;;;;;;26.00;21.45;97657.75;5528083;26;20374;-79
2024/04/19 06:26:53;;;;;;;;;;;;;;;26.52;21.11;97662.66;5528296;26;19934;-79
2024/04/19 06:29:19;;;;;;;;;;;;;;;26.89;20.70;97660.84;5520024;26;19928;-79
2024/04/19 06:31:45;;;;;;;;;;;;;;;24.86;22.67;97662.03;5491694;26;19928;-79
2024/04/19 06:34:11;;;;;;;;;;;;;;;25.02;22.63;97656.31;5491817;26;19928;-79
2024/04/19 06:36:37;;;;;;;;;;;;;;;25.17;22.67;97659.44;5492670;26;19934;-79
2024/04/19 06:39:06;;;;;;;;;;;;;;;24.89;23.35;97654.75;5527045;26;20262;-79
2024/04/19 06:41:36;;;;;;;;;;;;;;;25.25;22.66;97657.97;5520138;26;20309;-79
2024/04/19 06:44:02;;;;;;;;;;;;;;;25.90;21.67;97647.69;5510825;26;19936;-78
2024/04/19 06:46:28;;;;;;;;;;;;;;;26.47;22.02;97649.19;5527758;26;20280;-78
2024/04/19 06:48:54;;;;;;;;;;;;;;;26.43;21.94;97651.34;5497494;26;19928;-78
2024/04/19 06:51:20;;;;;;;;;;;;;;;26.17;20.68;97646.31;5527972;26;19927;-79
2024/04/19 06:53:46;;;;;;;;;;;;;;;25.91;21.92;97642.81;5524717;26;19934;-79
2024/04/19 06:56:12;;;;;;;;;;;;;;;24.14;25.74;97644.19;5490824;26;20254;-78
2024/04/19 06:58:38;;;;;;;;;;;;;;;24.36;21.88;97645.94;5524821;26;19927;-79
2024/04/19 07:01:05;;;;;;;;;;;;;;;25.55;21.56;97634.09;5527873;26;19927;-79
2024/04/19 07:03:34;;;;;;;;;;;;;;;26.48;21.45;97639.50;5527958;26;19939;-78
2024/04/19 07:06:09;;;;;;;;;;;;;;;26.53;21.45;97636.09;5527829;26;19938;-78
2024/04/19 07:08:36;;;;;;;;;;;;;;;26.74;20.45;97638.06;5526668;26;19934;-78
2024/04/19 07:11:02;;;;;;;;;;;;;;;27.08;20.35;97633.50;5526147;26;19936;-78
2024/04/19 07:13:29;;;;;;;;;;;;;;;26.97;20.24;97627.53;5527405;26;19963;-78
2024/04/19 07:15:55;;;;;;;;;;;;;;;27.51;19.75;97626.91;5527582;26;19928;-78
2024/04/19 07:18:23;;;;;;;;;;;;;;;26.91;20.32;97623.78;5519962;26;19965;-78
2024/04/19 07:20:50;;;;;;;;;;;;;;;26.82;20.55;97620.91;5490797;26;19977;-78
2024/04/19 07:23:16;;;;;;;;;;;;;;;26.23;20.74;97613.56;5490885;26;19950;-78
2024/04/19 07:25:42;;;;;;;;;;;;;;;25.76;20.66;97611.63;5540680;25;19927;-78
2024/04/19 07:28:08;;;;;;;;;;;;;;;25.91;21.20;97609.06;5549175;25;19927;-78
2024/04/19 07:30:34;;;;;;;;;;;;;;;26.19;20.16;97604.44;5527187;26;20366;-78
2024/04/19 07:33:00;;;;;;;;;;;;;;;26.87;20.27;97609.03;5526776;26;19934;-78
2024/04/19 07:35:26;;;;;;;;;;;;;;;27.11;19.03;97604.41;5507932;26;20370;-78
2024/04/19 07:37:52;;;;;;;;;;;;;;;26.88;20.33;97597.31;5500861;26;19935;-78
2024/04/19 07:40:18;;;;;;;;;;;;;;;26.49;20.45;97598.81;5514973;26;19928;-78
2024/04/19 07:42:47;;;;;;;;;;;;;;;26.95;20.59;97601.84;5526859;26;19927;-78
2024/04/19 07:45:18;;;;;;;;;;;;;;;25.28;27.83;97600.84;5525783;26;19928;-78
2024/04/19 07:47:47;;;;;;;;;;;;;;;25.30;20.89;97601.19;5513369;26;19927;-79
2024/04/19 07:50:13;;;;;;;;;;;;;;;26.35;19.76;97599.38;5514733;26;19928;-79
2024/04/19 07:52:39;;;;;;;;;;;;;;;27.32;19.57;97603.50;5519264;26;19934;-79
2024/04/19 07:55:07;;;;;;;;;;;;;;;25.38;21.49;97599.72;5527243;26;20354;-79
2024/04/19 07:57:34;;;;;;;;;;;;;;;25.40;20.94;97602.84;5527147;26;19936;-79
2024/04/19 08:00:01;;;;;;;;;;;;;;;25.90;19.79;97593.44;5525822;26;20358;-79
2024/04/19 08:02:27;;;;;;;;;;;;;;;25.98;19.55;97586.31;5525671;26;19939;-79
2024/04/19 08:04:53;;;;;;;;;;;;;;;26.88;19.10;97588.06;5526799;26;19928;-79
2024/04/19 08:07:23;;;;;;;;;;;;;;;25.96;19.99;97588.78;5526750;26;19927;-79
2024/04/19 08:09:53;;;;;;;;;;;;;;;25.83;21.95;97585.28;5525143;26;19968;-79
2024/04/19 08:12:19;;;;;;;;;;;;;;;27.03;20.65;97589.81;5526317;26;19934;-79
2024/04/19 08:14:45;;;;;;;;;;;;;;;27.32;19.19;97580.97;5516976;26;19936;-79
2024/04/19 08:17:11;;;;;;;;;;;;;;;28.19;19.68;97569.84;5489607;26;20000;-79
2024/04/19 08:19:37;;;;;;;;;;;;;;;29.08;18.21;97569.94;5459450;26;19928;-79
2024/04/19 08:22:03;;;;;;;;;;;;;;;28.58;18.70;97562.31;5526445;26;19955;-79
2024/04/19 08:24:29;;;;;;;;;;;;;;;27.97;17.92;97572.03;5532258;25;19934;-79
2024/04/19 08:26:55;;;;;;;;;;;;;;;25.75;20.04;97570.69;5529972;25;19934;-79
2024/04/19 08:29:21;;;;;;;;;;;;;;;25.31;19.84;97578.25;5521085;26;19928;-79
2024/04/19 08:31:48;;;;;;;;;;;;;;;25.75;19.70;97581.13;5505676;26;19934;-79
2024/04/19 08:34:14;;;;;;;;;;;;;;;26.77;18.99;97574.41;5526587;26;19947;-79
2024/04/19 08:36:40;;;;;;;;;;;;;;;26.75;18.69;97571.28;5500123;25;19960;-79
2024/04/19 08:39:06;;;;;;;;;;;;;;;25.62;19.65;97575.59;5500062;25;20116;-79
2024/04/19 08:41:32;;;;;;;;;;;;;;;25.97;18.89;97576.31;5522784;26;19943;-79
2024/04/19 08:43:59;;;;;;;;;;;;;;;25.27;19.74;97571.19;5523176;26;19931;-79
2024/04/19 08:46:28;;;;;;;;;;;;;;;24.83;19.44;97566.69;5505929;26;19928;-79
2024/04/19 08:48:55;;;;;;;;;;;;;;;25.33;19.44;97570.16;5511391;26;20259;-79
2024/04/19 08:51:22;;;;;;;;;;;;;;;25.52;20.39;97559.88;5525579;26;19927;-79
2024/04/19 08:53:49;;;;;;;;;;;;;;;26.00;18.55;97550.06;5507209;26;19927;-78
2024/04/19 08:56:16;;;;;;;;;;;;;;;26.18;18.98;97546.59;5508056;26;20251;-79
2024/04/19 08:58:42;;;;;;;;;;;;;;;25.87;18.77;97552.97;5530486;26;19928;-79
2024/04/19 09:01:09;;;;;;;;;;;;;;;26.08;18.94;97549.34;5529220;26;19935;-79
2024/04/19 09:03:35;;;;;;;;;;;;;;;27.16;19.16;97545.41;5497340;26;19932;-79
2024/04/19 09:06:01;;;;;;;;;;;;;;;28.30;17.99;97541.09;5527608;26;19931;-79
2024/04/19 09:08:27;;;;;;;;;;;;;;;28.89;17.32;97542.28;5529658;26;20140;-79
2024/04/19 09:10:53;;;;;;;;;;;;;;;28.62;16.73;97535.50;5527825;26;20318;-79
2024/04/19 09:13:19;;;;;;;;;;;;;;;27.36;17.72;97542.09;5528985;26;19931;-79
2024/04/19 09:15:46;;;;;;;;;;;;;;;27.49;17.37;97545.59;5524531;26;19928;-79
2024/04/19 09:18:12;;;;;;;;;;;;;;;27.57;17.33;97544.03;5501229;26;19964;-79
2024/04/19 09:20:44;;;;;;;;;;;;;;;28.46;17.72;97537.91;5492635;26;19932;-79
2024/04/19 09:23:10;;;;;;;;;;;;;;;29.08;16.27;97541.66;5500551;26;19934;-79
2024/04/19 09:25:39;;;;;;;;;;;;;;;29.37;17.00;97533.34;5517214;25;19927;-79
2024/04/19 09:28:09;;;;;;;;;;;;;;;28.60;16.96;97534.41;5528045;26;20000;-79
2024/04/19 09:30:35;;;;;;;;;;;;;;;29.15;17.57;97526.41;5529142;26;19931;-79
2024/04/19 09:33:01;;;;;;;;;;;;;;;28.36;17.40;97528.66;5511148;26;20367;-79
2024/04/19 09:35:27;;;;;;;;;;;;;;;28.84;16.95;97526.75;5529334;26;19931;-79
2024/04/19 09:37:54;;;;;;;;;;;;;;;29.29;17.10;97520.81;5528886;26;19999;-79
2024/04/19 09:40:23;;;;;;;;;;;;;;;29.39;16.40;97516.66;5525958;26;19928;-79
2024/04/19 09:42:50;;;;;;;;;;;;;;;28.98;16.17;97506.25;5529146;26;20263;-79
2024/04/19 09:45:20;;;;;;;;;;;;;;;27.99;16.94;97511.06;5519487;26;19928;-79
2024/04/19 09:47:48;;;;;;;;;;;;;;;28.13;16.71;97503.97;5509834;26;19941;-79
2024/04/19 09:50:15;;;;;;;;;;;;;;;28.43;16.85;97502.91;5528485;26;19931;-79
2024/04/19 09:52:42;;;;;;;;;;;;;;;28.41;16.68;97499.78;5524765;26;19927;-79
2024/04/19 09:55:09;;;;;;;;;;;;;;;28.36;16.63;97494.00;5513722;26;20271;-79
2024/04/19 09:57:35;;;;;;;;;;;;;;;28.84;17.01;97492.06;5510988;26;20367;-79
2024/04/19 10:00:02;;;;;;;;;;;;;;;29.40;16.96;97484.28;5498494;26;19939;-79
2024/04/19 10:02:29;;;;;;;;;;;;;;;29.66;16.84;97476.03;5507309;26;19927;-79
2024/04/19 10:04:57;;;;;;;;;;;;;;;30.12;16.60;97470.69;5511160;25;20290;-79
2024/04/19 10:07:24;;;;;;;;;;;;;;;30.11;15.84;97466.28;5511093;26;19953;-79
2024/04/19 10:09:51;;;;;;;;;;;;;;;29.98;16.36;97469.44;5515788;26;19936;-79
2024/04/19 10:12:17;;;;;;;;;;;;;;;30.53;16.16;97461.03;5502154;26;20008;-79
2024/04/19 10:14:43;;;;;;;;;;;;;;;30.81;15.62;97455.00;5517816;26;19928;-79
2024/04/19 10:17:10;;;;;;;;;;;;;;;30.95;15.86;97448.53;5491682;26;19928;-79
2024/04/19 10:19:36;;;;;;;;;;;;;;;30.43;15.40;97451.13;5492612;26;19944;-79
2024/04/19 10:22:02;;;;;;;;;;;;;;;30.20;15.89;97445.56;5501741;26;19936;-79
2024/04/19 10:24:29;;;;;;;;;;;;;;;29.54;16.12;97436.69;5501828;25;20031;-79
2024/04/19 10:26:55;;;;;;;;;;;;;;;29.79;17.24;97441.78;5516612;26;20326;-79
2024/04/19 10:29:22;;;;;;;;;;;;;;;30.24;16.08;97438.44;5524070;26;20252;-78
2024/04/19 10:31:50;;;;;;;;;;;;;;;30.11;17.53;97423.03;5502135;26;20278;-78
2024/04/19 10:34:16;;;;;;;;;;;;;;;31.10;16.31;97420.84;5499722;26;19928;-78
2024/04/19 10:36:42;;;;;;;;;;;;;;;30.30;14.81;97416.63;5501593;26;20382;-78
2024/04/19 10:39:08;;;;;;;;;;;;;;;29.98;16.44;97418.47;5517950;26;19928;-78
2024/04/19 10:41:34;;;;;;;;;;;;;;;30.33;15.72;97415.69;5516838;26;20300;-78
2024/04/19 10:44:01;;;;;;;;;;;;;;;30.06;15.39;97411.13;5519605;26;19927;-79
2024/04/19 10:46:27;;;;;;;;;;;;;;;30.33;17.36;97409.22;5518345;26;19935;-79
2024/04/19 10:48:53;;;;;;;;;;;;;;;30.76;15.42;97394.09;5494089;26;20359;-79
2024/04/19 10:51:23;;;;;;;;;;;;;;;30.09;15.31;97395.19;5512564;26;19935;-79
2024/04/19 10:53:49;;;;;;;;;;;;;;;30.38;15.28;97391.53;5502605;26;19969;-79
2024/04/19 10:56:15;;;;;;;;;;;;;;;29.78;15.24;97397.81;5518703;26;19938;-78
2024/04/19 10:58:42;;;;;;;;;;;;;;;29.45;15.39;97391.53;5514005;26;19936;-78
2024/04/19 11:01:09;;;;;;;;;;;;;;;29.29;18.16;97384.31;5510620;26;19934;-79
2024/04/19 11:03:35;;;;;;;;;;;;;;;28.85;16.21;97380.56;5500864;26;20265;-78
2024/04/19 11:06:01;;;;;;;;;;;;;;;27.97;17.42;97389.41;5521388;26;19995;-79
2024/04/19 11:08:28;;;;;;;;;;;;;;;28.10;18.52;97380.72;5521188;26;20311;-78
2024/04/19 11:10:54;;;;;;;;;;;;;;;28.52;18.09;97377.84;5526130;26;19927;-78
2024/04/19 11:13:20;;;;;;;;;;;;;;;29.09;17.85;97379.28;5524383;26;19928;-79
2024/04/19 11:15:46;;;;;;;;;;;;;;;29.20;17.61;97376.69;5527542;26;19991;-79
2024/04/19 11:18:12;;;;;;;;;;;;;;;28.42;17.22;97370.69;5512680;26;19931;-78
2024/04/19 11:20:38;;;;;;;;;;;;;;;28.16;17.65;97366.75;5495681;26;19932;-78
2024/04/19 11:23:04;;;;;;;;;;;;;;;28.46;17.88;97357.16;5510263;26;19997;-79
2024/04/19 11:25:32;;;;;;;;;;;;;;;29.20;17.21;97354.06;5517042;26;19932;-79
2024/04/19 11:27:59;;;;;;;;;;;;;;;29.03;17.61;97355.78;5503928;26;19964;-79
2024/04/19 11:30:25;;;;;;;;;;;;;;;29.92;16.02;97334.72;5499308;26;19938;-78
2024/04/19 11:32:54;;;;;;;;;;;;;;;29.53;16.95;97342.56;5507700;26;19972;-78
2024/04/19 11:35:20;;;;;;;;;;;;;;;29.76;15.83;97340.88;5527678;26;20438;-79
2024/04/19 11:37:48;;;;;;;;;;;;;;;28.33;16.37;97329.16;5525413;26;20267;-79
2024/04/19 11:40:18;;;;;;;;;;;;;;;27.94;16.59;97345.19;5527380;25;19937;-78
2024/04/19 11:42:44;;;;;;;;;;;;;;;28.62;15.73;97337.75;5522769;26;20008;-79
2024/04/19 11:45:11;;;;;;;;;;;;;;;28.85;15.65;97333.31;5490369;26;20374;-79
2024/04/19 11:47:37;;;;;;;;;;;;;;;29.38;16.32;97325.56;5524110;26;20251;-79
2024/04/19 11:50:03;;;;;;;;;;;;;;;30.28;16.50;97320.03;5521399;26;19928;-78
2024/04/19 11:52:29;;;;;;;;;;;;;;;30.44;15.03;97319.50;5495946;26;20373;-79
2024/04/19 11:54:55;;;;;;;;;;;;;;;30.76;14.55;97312.69;5513882;26;19939;-79
2024/04/19 11:57:21;;;;;;;;;;;;;;;31.48;14.93;97301.34;5503740;26;20364;-79
2024/04/19 11:59:47;;;;;;;;;;;;;;;31.22;14.48;97297.72;5512145;26;19928;-79
2024/04/19 12:02:14;;;;;;;;;;;;;;;30.76;15.44;97303.41;5517173;26;19934;-79
2024/04/19 12:04:40;;;;;;;;;;;;;;;30.40;15.21;97284.19;5495167;26;19936;-79
2024/04/19 12:07:06;;;;;;;;;;;;;;;30.59;15.20;97288.28;5495893;26;20379;-79
2024/04/19 12:09:32;;;;;;;;;;;;;;;30.69;15.24;97287.63;5508745;26;19935;-79
2024/04/19 12:12:00;;;;;;;;;;;;;;;29.48;15.38;97294.38;5501021;26;19935;-79
2024/04/19 12:14:30;;;;;;;;;;;;;;;28.03;15.95;97280.25;5508872;26;19928;-78
2024/04/19 12:16:56;;;;;;;;;;;;;;;28.42;17.33;97275.44;5513275;26;19928;-78
2024/04/19 12:19:22;;;;;;;;;;;;;;;28.98;15.94;97271.66;5518851;26;19943;-78
2024/04/19 12:21:48;;;;;;;;;;;;;;;28.28;15.79;97281.81;5496446;26;19938;-78
2024/04/19 12:24:15;;;;;;;;;;;;;;;29.09;15.60;97283.16;5512694;25;20370;-78
2024/04/19 12:26:41;;;;;;;;;;;;;;;29.32;15.40;97270.19;5500020;26;19935;-78
2024/04/19 12:29:07;;;;;;;;;;;;;;;29.28;15.87;97278.13;5490801;26;19935;-78
2024/04/19 12:31:33;;;;;;;;;;;;;;;29.56;15.67;97281.38;5493734;26;19956;-79
2024/04/19 12:33:59;;;;;;;;;;;;;;;29.48;15.38;97280.25;5500575;26;20024;-78
2024/04/19 12:36:25;;;;;;;;;;;;;;;29.49;15.25;97274.09;5501255;26;19931;-78
2024/04/19 12:38:51;;;;;;;;;;;;;;;28.65;16.23;97277.47;5529057;26;20262;-78
2024/04/19 12:41:17;;;;;;;;;;;;;;;28.40;17.95;97277.19;5529574;26;19927;-78
2024/04/19 12:43:43;;;;;;;;;;;;;;;29.45;16.95;97281.22;5521906;26;19934;-78
2024/04/19 12:46:09;;;;;;;;;;;;;;;30.06;16.59;97282.91;5493496;26;19928;-79
2024/04/19 12:48:35;;;;;;;;;;;;;;;28.80;17.29;97269.00;5517506;26;19939;-78
2024/04/19 12:51:02;;;;;;;;;;;;;;;29.94;17.48;97279.16;5528408;26;19927;-79
2024/04/19 12:53:28;;;;;;;;;;;;;;;29.87;17.14;97276.75;5504190;26;19932;-78
2024/04/19 12:55:54;;;;;;;;;;;;;;;29.95;17.32;97282.78;5529100;26;19928;-78
2024/04/19 12:58:21;;;;;;;;;;;;;;;29.87;17.95;97276.75;5515068;26;19928;-78
2024/04/19 13:00:47;;;;;;;;;;;;;;;30.29;17.87;97273.47;5492412;26;19932;-78
2024/04/19 13:03:13;;;;;;;;;;;;;;;29.94;17.43;97284.06;5498457;26;19936;-79
2024/04/19 13:05:40;;;;;;;;;;;;;;;29.37;17.50;97278.78;5492708;26;19928;-78
2024/04/19 13:08:06;;;;;;;;;;;;;;;29.74;17.96;97269.81;5494029;26;19928;-78
2024/04/19 13:10:32;;;;;;;;;;;;;;;29.59;17.87;97266.25;5516722;26;19935;-78
2024/04/19 13:12:58;;;;;;;;;;;;;;;29.74;16.67;97252.84;5524435;25;19934;-78
2024/04/19 13:15:24;;;;;;;;;;;;;;;30.40;16.82;97255.84;5517989;26;19927;-78
2024/04/19 13:17:50;;;;;;;;;;;;;;;30.06;17.28;97260.25;5529563;26;19935;-79
2024/04/19 13:20:16;;;;;;;;;;;;;;;29.64;17.73;97263.50;5529285;26;19928;-78
2024/04/19 13:22:43;;;;;;;;;;;;;;;29.63;17.51;97252.69;5522119;26;20374;-79
2024/04/19 13:25:09;;;;;;;;;;;;;;;29.46;17.40;97249.59;5533700;25;19952;-78
2024/04/19 13:27:35;;;;;;;;;;;;;;;29.57;17.60;97249.75;5514624;26;19959;-79
2024/04/19 13:30:02;;;;;;;;;;;;;;;29.81;17.70;97238.31;5528829;26;19932;-79
2024/04/19 13:32:28;;;;;;;;;;;;;;;30.04;16.81;97235.28;5528678;26;19931;-79
2024/04/19 13:34:54;;;;;;;;;;;;;;;30.37;16.20;97226.47;5528236;26;20378;-79
2024/04/19 13:37:23;;;;;;;;;;;;;;;30.96;15.75;97228.91;5529284;26;19941;-79
2024/04/19 13:39:49;;;;;;;;;;;;;;;30.83;16.00;97214.34;5529244;26;19940;-79
2024/04/19 13:42:15;;;;;;;;;;;;;;;30.65;16.51;97221.88;5517537;26;19936;-79
2024/04/19 13:44:41;;;;;;;;;;;;;;;30.61;16.54;97223.38;5501693;26;19934;-79
2024/04/19 13:47:11;;;;;;;;;;;;;;;30.81;16.29;97219.72;5514367;26;19979;-79
2024/04/19 13:49:38;;;;;;;;;;;;;;;31.06;15.86;97210.44;5504120;26;19932;-80
2024/04/19 13:52:04;;;;;;;;;;;;;;;31.18;16.29;97209.25;5509679;26;19942;-80
2024/04/19 13:54:30;;;;;;;;;;;;;;;31.09;15.51;97209.41;5513713;26;19928;-79
2024/04/19 13:56:56;;;;;;;;;;;;;;;30.41;16.15;97207.19;5510064;26;19934;-80
2024/04/19 13:59:22;;;;;;;;;;;;;;;30.78;16.10;97210.16;5509957;26;19931;-79
2024/04/19 14:01:49;;;;;;;;;;;;;;;29.96;16.47;97203.03;5513707;26;19931;-79